Time;durP1;ratioP1;P1;durP2;ratioP2;P2;SDS_P1;SDS_P2;PMS_P1;PMS_P2;Temp;Humidity;BMP_temperature;BMP_pressure;BME280_temperature;BME280_humidity;BME280_pressure;Samples;Min_cycle;Max_cycle;Signal;HPM_P1;HPM_P2
2023/12/19 00:01:07;0.00;0.00;0.62;0.00;0.00;0.62;2.50;2.20;;;21.50;27.20;;;;;;2268734;61;20863;-62
2023/12/19 00:03:52;0.00;0.00;0.62;0.00;0.00;0.62;3.17;2.43;;;21.60;27.30;;;;;;2268204;61;20452;-60
2023/12/19 00:06:37;0.00;0.00;0.62;0.00;0.00;0.62;2.73;2.20;;;21.60;27.30;;;;;;2268870;61;20437;-61
2023/12/19 00:09:22;0.00;0.00;0.62;0.00;0.00;0.62;3.30;2.37;;;21.50;27.20;;;;;;2268492;61;20806;-60
2023/12/19 00:12:08;0.00;0.00;0.62;0.00;0.00;0.62;3.30;2.70;;;21.50;27.30;;;;;;2268372;61;20793;-61
2023/12/19 00:14:52;0.00;0.00;0.62;0.00;0.00;0.62;3.13;2.20;;;21.60;27.30;;;;;;2268455;61;20408;-59
2023/12/19 00:17:39;0.00;0.00;0.62;0.00;0.00;0.62;2.60;2.03;;;21.50;27.30;;;;;;2268471;61;20403;-61
2023/12/19 00:20:23;0.00;0.00;0.62;0.00;0.00;0.62;3.57;2.67;;;21.60;27.30;;;;;;2268636;61;20782;-61
2023/12/19 00:23:08;0.00;0.00;0.62;0.00;0.00;0.62;3.43;2.90;;;21.50;27.30;;;;;;2268451;61;20447;-62
2023/12/19 00:25:52;0.00;0.00;0.62;0.00;0.00;0.62;3.93;2.80;;;21.60;27.30;;;;;;2268362;61;20790;-62
2023/12/19 00:28:38;0.00;0.00;0.62;0.00;0.00;0.62;3.20;2.30;;;21.50;27.30;;;;;;2268692;61;20516;-61
2023/12/19 00:31:23;0.00;0.00;0.62;0.00;0.00;0.62;3.40;2.50;;;21.60;27.30;;;;;;2268606;61;20478;-63
2023/12/19 00:34:07;0.00;0.00;0.62;0.00;0.00;0.62;3.13;2.47;;;21.50;27.30;;;;;;2268662;61;20387;-61
2023/12/19 00:36:52;0.00;0.00;0.62;0.00;0.00;0.62;2.90;2.20;;;21.50;27.30;;;;;;2268645;61;20359;-61
2023/12/19 00:39:37;0.00;0.00;0.62;0.00;0.00;0.62;3.07;2.23;;;21.60;27.30;;;;;;2268330;61;20387;-61
2023/12/19 00:42:21;0.00;0.00;0.62;0.00;0.00;0.62;2.67;2.30;;;21.50;27.30;;;;;;2268314;61;20362;-61
2023/12/19 00:45:09;0.00;0.00;0.62;0.00;0.00;0.62;3.80;2.30;;;21.50;27.30;;;;;;2268669;61;20379;-61
2023/12/19 00:47:53;0.00;0.00;0.62;0.00;0.00;0.62;2.70;2.10;;;21.50;27.30;;;;;;2268302;61;20422;-60
2023/12/19 00:50:37;0.00;0.00;0.62;0.00;0.00;0.62;2.80;1.77;;;21.50;27.30;;;;;;2268604;61;20363;-60
2023/12/19 00:53:23;0.00;0.00;0.62;0.00;0.00;0.62;2.93;2.33;;;21.50;27.30;;;;;;2268192;61;20382;-60
2023/12/19 00:56:09;0.00;0.00;0.62;0.00;0.00;0.62;3.43;2.50;;;21.50;27.30;;;;;;2268331;61;20898;-58
2023/12/19 00:58:54;0.00;0.00;0.62;0.00;0.00;0.62;2.47;1.70;;;21.50;27.30;;;;;;2268611;61;20429;-61
2023/12/19 01:01:39;0.00;0.00;0.62;0.00;0.00;0.62;3.23;2.30;;;21.50;27.30;;;;;;2267845;61;20348;-61
2023/12/19 01:04:24;0.00;0.00;0.62;0.00;0.00;0.62;2.80;2.00;;;21.50;27.30;;;;;;2268725;61;20364;-60
2023/12/19 01:07:09;0.00;0.00;0.62;0.00;0.00;0.62;2.90;2.50;;;21.50;27.30;;;;;;2268501;61;20905;-61
2023/12/19 01:09:53;0.00;0.00;0.62;0.00;0.00;0.62;2.93;2.00;;;21.50;27.30;;;;;;2268035;61;20416;-61
2023/12/19 01:12:38;0.00;0.00;0.62;0.00;0.00;0.62;2.77;2.13;;;21.50;27.30;;;;;;2268217;61;20374;-61
2023/12/19 01:15:24;0.00;0.00;0.62;0.00;0.00;0.62;3.20;2.60;;;21.50;27.30;;;;;;2268768;61;21109;-61
2023/12/19 01:18:10;0.00;0.00;0.62;0.00;0.00;0.62;2.60;2.20;;;21.50;27.30;;;;;;2268131;61;20432;-60
2023/12/19 01:20:54;0.00;0.00;0.62;0.00;0.00;0.62;3.03;2.17;;;21.50;27.30;;;;;;2268413;61;20501;-60
2023/12/19 01:23:39;0.00;0.00;0.62;0.00;0.00;0.62;3.60;2.27;;;21.50;27.30;;;;;;2267936;61;20406;-61
2023/12/19 01:26:24;0.00;0.00;0.62;0.00;0.00;0.62;2.77;2.20;;;21.50;27.30;;;;;;2268406;61;20918;-62
2023/12/19 01:29:08;0.00;0.00;0.62;0.00;0.00;0.62;2.70;2.30;;;21.50;27.30;;;;;;2268337;61;21020;-59
2023/12/19 01:31:53;0.00;0.00;0.62;0.00;0.00;0.62;3.07;2.17;;;21.50;27.30;;;;;;2267468;61;20359;-60
2023/12/19 01:34:39;0.00;0.00;0.62;0.00;0.00;0.62;2.60;1.97;;;21.50;27.30;;;;;;2268475;61;20359;-61
2023/12/19 01:37:24;0.00;0.00;0.62;0.00;0.00;0.62;2.60;1.73;;;21.50;27.30;;;;;;2268390;61;20775;-61
2023/12/19 01:40:09;0.00;0.00;0.62;0.00;0.00;0.62;2.50;1.93;;;21.50;27.30;;;;;;2268232;61;20430;-65
2023/12/19 01:42:54;0.00;0.00;0.62;0.00;0.00;0.62;2.20;1.80;;;21.50;27.30;;;;;;2268160;61;20778;-61
2023/12/19 01:45:38;0.00;0.00;0.62;0.00;0.00;0.62;2.57;1.80;;;21.50;27.30;;;;;;2268156;61;20815;-60
2023/12/19 01:48:24;0.00;0.00;0.62;0.00;0.00;0.62;2.70;2.10;;;21.50;27.30;;;;;;2268334;61;20471;-60
2023/12/19 01:51:11;0.00;0.00;0.62;0.00;0.00;0.62;2.50;1.80;;;21.50;27.30;;;;;;2265263;61;20379;-60
2023/12/19 01:53:56;0.00;0.00;0.62;0.00;0.00;0.62;3.10;2.07;;;21.50;27.30;;;;;;2264647;61;20371;-59
2023/12/19 01:56:41;0.00;0.00;0.62;0.00;0.00;0.62;2.47;1.80;;;21.50;27.30;;;;;;2268633;61;20970;-61
2023/12/19 01:59:26;0.00;0.00;0.62;0.00;0.00;0.62;2.50;1.87;;;21.50;27.30;;;;;;2268356;61;20449;-61
2023/12/19 02:02:10;0.00;0.00;0.62;0.00;0.00;0.62;2.57;1.90;;;21.50;27.30;;;;;;2267764;61;20359;-61
2023/12/19 02:04:58;0.00;0.00;0.62;0.00;0.00;0.62;2.47;1.80;;;21.50;27.30;;;;;;2268372;61;20413;-61
2023/12/19 02:07:44;0.00;0.00;0.62;0.00;0.00;0.62;2.00;1.50;;;21.50;27.30;;;;;;2268392;61;20390;-60
2023/12/19 02:10:29;0.00;0.00;0.62;0.00;0.00;0.62;2.37;1.93;;;21.50;27.40;;;;;;2268178;61;20420;-60
2023/12/19 02:13:13;0.00;0.00;0.62;0.00;0.00;0.62;2.67;1.90;;;21.50;27.30;;;;;;2267956;61;20398;-61
2023/12/19 02:15:58;0.00;0.00;0.62;0.00;0.00;0.62;3.40;2.10;;;21.50;27.30;;;;;;2268003;61;20362;-62
2023/12/19 02:18:43;0.00;0.00;0.62;0.00;0.00;0.62;2.93;1.90;;;21.50;27.30;;;;;;2268419;61;20820;-61
2023/12/19 02:21:28;0.00;0.00;0.62;0.00;0.00;0.62;2.80;2.00;;;21.50;27.30;;;;;;2265169;61;20399;-58
2023/12/19 02:24:14;0.00;0.00;0.62;0.00;0.00;0.62;2.33;1.90;;;21.50;27.30;;;;;;2266050;61;20375;-61
2023/12/19 02:26:59;0.00;0.00;0.62;0.00;0.00;0.62;2.83;2.20;;;21.50;27.30;;;;;;2264194;61;20435;-61
2023/12/19 02:29:44;0.00;0.00;0.62;0.00;0.00;0.62;2.63;1.90;;;21.50;27.90;;;;;;2264515;61;20785;-61
2023/12/19 02:32:33;0.00;0.00;0.62;0.00;0.00;0.62;2.00;1.60;;;21.50;27.30;;;;;;2263847;61;20407;-61
2023/12/19 02:35:17;0.00;0.00;0.62;0.00;0.00;0.62;2.37;1.90;;;21.50;27.30;;;;;;2264205;61;20415;-61
2023/12/19 02:38:02;0.00;0.00;0.62;0.00;0.00;0.62;3.03;1.87;;;21.50;27.30;;;;;;2264012;61;20433;-60
2023/12/19 02:40:48;0.00;0.00;0.62;0.00;0.00;0.62;2.50;1.80;;;21.50;27.30;;;;;;2264346;61;20364;-61
2023/12/19 02:43:34;0.00;0.00;0.62;0.00;0.00;0.62;2.23;1.90;;;21.50;27.40;;;;;;2264187;61;20364;-61
2023/12/19 02:46:18;0.00;0.00;0.62;0.00;0.00;0.62;2.40;1.70;;;21.50;27.30;;;;;;2643852;45;20419;-61
2023/12/19 02:49:03;0.00;0.00;0.62;0.00;0.00;0.62;2.30;1.73;;;21.50;27.40;;;;;;2673414;45;20372;-64
2023/12/19 02:51:48;0.00;0.00;0.62;0.00;0.00;0.62;2.00;1.33;;;21.50;27.40;;;;;;2267234;61;20399;-59
2023/12/19 02:54:32;0.00;0.00;0.62;0.00;0.00;0.62;2.17;1.50;;;21.50;27.30;;;;;;2268624;61;20901;-56
2023/12/19 02:57:18;0.00;0.00;0.62;0.00;0.00;0.62;1.93;1.50;;;21.50;27.40;;;;;;2269106;61;20363;-66
2023/12/19 03:00:05;0.00;0.00;0.62;0.00;0.00;0.62;2.00;1.60;;;21.50;27.40;;;;;;2268419;61;20420;-61
2023/12/19 03:02:50;0.00;0.00;0.62;0.00;0.00;0.62;2.53;1.60;;;21.50;27.40;;;;;;2268364;61;20406;-61
2023/12/19 03:05:35;0.00;0.00;0.62;0.00;0.00;0.62;2.30;1.60;;;21.50;27.40;;;;;;2268846;61;20366;-61
2023/12/19 03:08:19;0.00;0.00;0.62;0.00;0.00;0.62;2.23;1.80;;;21.50;27.40;;;;;;2268538;61;20383;-58
2023/12/19 03:11:04;0.00;0.00;0.62;0.00;0.00;0.62;2.03;1.30;;;21.50;27.40;;;;;;2268922;61;20366;-61
2023/12/19 03:13:50;0.00;0.00;0.62;0.00;0.00;0.62;1.73;1.33;;;21.50;27.40;;;;;;2268751;61;20455;-60
2023/12/19 03:16:34;0.00;0.00;0.62;0.00;0.00;0.62;2.53;1.53;;;21.50;27.40;;;;;;2268530;61;20367;-61
2023/12/19 03:19:19;0.00;0.00;0.62;0.00;0.00;0.62;2.47;1.67;;;21.60;27.40;;;;;;2269023;61;20437;-59
2023/12/19 03:22:04;0.00;0.00;0.62;0.00;0.00;0.62;1.87;1.57;;;21.50;27.40;;;;;;2268322;61;20763;-61
2023/12/19 03:24:48;0.00;0.00;0.62;0.00;0.00;0.62;2.00;1.33;;;21.50;27.40;;;;;;2268806;61;20404;-61
2023/12/19 03:27:33;0.00;0.00;0.62;0.00;0.00;0.62;1.90;1.30;;;21.50;27.40;;;;;;2268795;61;20441;-66
2023/12/19 03:30:19;0.00;0.00;0.62;0.00;0.00;0.62;1.90;1.30;;;21.50;27.40;;;;;;2268470;61;20398;-60
2023/12/19 03:33:04;0.00;0.00;0.62;0.00;0.00;0.62;2.13;1.43;;;21.50;27.40;;;;;;2268408;61;20398;-58
2023/12/19 03:35:49;0.00;0.00;0.62;0.00;0.00;0.62;1.60;1.23;;;21.50;27.40;;;;;;2268998;61;20776;-61
2023/12/19 03:38:35;0.00;0.00;0.62;0.00;0.00;0.62;2.00;1.47;;;21.50;27.40;;;;;;2265409;61;20383;-57
2023/12/19 03:41:20;0.00;0.00;0.62;0.00;0.00;0.62;1.90;1.33;;;21.50;27.40;;;;;;2268898;61;20937;-61
2023/12/19 03:44:05;0.00;0.00;0.62;0.00;0.00;0.62;1.93;1.63;;;21.50;27.40;;;;;;2268527;61;20363;-58
2023/12/19 03:46:51;0.00;0.00;0.62;0.00;0.00;0.62;1.80;1.30;;;21.50;27.40;;;;;;2268747;61;20795;-61
2023/12/19 03:49:35;0.00;0.00;0.62;0.00;0.00;0.62;1.97;1.30;;;21.50;27.40;;;;;;2265525;61;20461;-59
2023/12/19 03:52:21;0.00;0.00;0.62;0.00;0.00;0.62;2.00;1.20;;;21.50;27.40;;;;;;2268212;61;20366;-61
2023/12/19 03:55:08;0.00;0.00;0.62;0.00;0.00;0.62;1.87;1.47;;;21.50;27.40;;;;;;2268476;61;20363;-61
2023/12/19 03:57:53;0.00;0.00;0.62;0.00;0.00;0.62;1.80;1.20;;;21.50;27.40;;;;;;2269116;61;20797;-61
2023/12/19 04:00:38;0.00;0.00;0.62;0.00;0.00;0.62;2.37;2.00;;;21.50;27.40;;;;;;2268472;61;20366;-61
2023/12/19 04:03:23;0.00;0.00;0.62;0.00;0.00;0.62;2.57;1.63;;;21.50;27.40;;;;;;2268602;61;20834;-61
2023/12/19 04:06:08;0.00;0.00;0.62;0.00;0.00;0.62;1.80;1.40;;;21.50;27.40;;;;;;2268929;61;20387;-61
2023/12/19 04:08:52;0.00;0.00;0.62;0.00;0.00;0.62;3.20;1.97;;;21.50;27.40;;;;;;2268756;61;20441;-61
2023/12/19 04:11:37;0.00;0.00;0.62;0.00;0.00;0.62;1.70;1.30;;;21.50;27.40;;;;;;2268110;61;20366;-63
2023/12/19 04:14:23;0.00;0.00;0.62;0.00;0.00;0.62;2.70;1.87;;;21.50;27.40;;;;;;2268390;61;20810;-60
2023/12/19 04:17:08;0.00;0.00;0.62;0.00;0.00;0.62;2.27;1.53;;;21.50;27.40;;;;;;2268355;61;20806;-61
2023/12/19 04:19:54;0.00;0.00;0.62;0.00;0.00;0.62;2.17;1.60;;;21.50;27.40;;;;;;2268533;61;20433;-59
2023/12/19 04:22:38;0.00;0.00;0.62;0.00;0.00;0.62;2.00;1.43;;;21.50;27.40;;;;;;2267840;61;20358;-60
2023/12/19 04:25:23;0.00;0.00;0.62;0.00;0.00;0.62;1.97;1.53;;;21.50;27.40;;;;;;2268809;61;20362;-61
2023/12/19 04:28:08;0.00;0.00;0.62;0.00;0.00;0.62;2.07;1.53;;;21.50;27.40;;;;;;2268488;61;20402;-61
2023/12/19 04:30:52;0.00;0.00;0.62;0.00;0.00;0.62;2.43;1.70;;;21.50;27.40;;;;;;2268594;61;20367;-63
2023/12/19 04:33:37;0.00;0.00;0.62;0.00;0.00;0.62;2.20;1.70;;;21.50;27.40;;;;;;2268316;61;20359;-61
2023/12/19 04:36:23;0.00;0.00;0.62;0.00;0.00;0.62;2.20;1.63;;;21.50;27.40;;;;;;2265100;61;20367;-60
2023/12/19 04:39:07;0.00;0.00;0.62;0.00;0.00;0.62;2.67;1.27;;;21.50;27.40;;;;;;2268622;61;20964;-61
2023/12/19 04:41:52;0.00;0.00;0.62;0.00;0.00;0.62;2.53;1.73;;;21.60;27.50;;;;;;2268317;61;20888;-60
2023/12/19 04:44:36;0.00;0.00;0.62;0.00;0.00;0.62;2.50;1.63;;;21.50;27.40;;;;;;2265132;61;20417;-58
2023/12/19 04:47:21;0.00;0.00;0.62;0.00;0.00;0.62;2.00;1.43;;;21.50;27.40;;;;;;2268173;61;20386;-64
2023/12/19 04:50:08;0.00;0.00;0.62;0.00;0.00;0.62;2.20;1.70;;;21.50;27.40;;;;;;2268434;61;20424;-59
2023/12/19 04:52:54;0.00;0.00;0.62;0.00;0.00;0.62;2.40;1.80;;;21.50;27.40;;;;;;2267820;61;20436;-59
2023/12/19 04:55:38;0.00;0.00;0.62;0.00;0.00;0.62;2.47;1.60;;;21.50;27.40;;;;;;2268782;61;20359;-59
2023/12/19 04:58:23;0.00;0.00;0.62;0.00;0.00;0.62;1.83;1.20;;;21.50;27.40;;;;;;2265128;61;20814;-61
2023/12/19 05:01:08;0.00;0.00;0.62;0.00;0.00;0.62;2.07;1.50;;;21.50;27.40;;;;;;2268128;61;20452;-63
2023/12/19 05:03:52;0.00;0.00;0.62;0.00;0.00;0.62;1.97;1.40;;;21.50;27.40;;;;;;2268245;61;20439;-59
2023/12/19 05:06:37;0.00;0.00;0.62;0.00;0.00;0.62;1.97;1.60;;;21.50;27.40;;;;;;2268084;61;20419;-60
2023/12/19 05:09:23;0.00;0.00;0.62;0.00;0.00;0.62;3.10;1.80;;;21.50;27.40;;;;;;2268647;61;20432;-60
2023/12/19 05:12:07;0.00;0.00;0.62;0.00;0.00;0.62;1.90;1.40;;;21.50;27.50;;;;;;2267948;61;20362;-61
2023/12/19 05:14:52;0.00;0.00;0.62;0.00;0.00;0.62;2.60;1.83;;;21.50;27.40;;;;;;2268389;61;20375;-60
2023/12/19 05:17:36;0.00;0.00;0.62;0.00;0.00;0.62;2.13;1.50;;;21.50;27.40;;;;;;2268645;61;20902;-61
2023/12/19 05:20:22;0.00;0.00;0.62;0.00;0.00;0.62;2.67;1.60;;;21.50;27.40;;;;;;2268142;61;20383;-61
2023/12/19 05:23:06;0.00;0.00;0.62;0.00;0.00;0.62;2.60;2.00;;;21.50;27.40;;;;;;2268347;61;20921;-61
2023/12/19 05:25:52;0.00;0.00;0.62;0.00;0.00;0.62;2.00;1.50;;;21.50;27.40;;;;;;2268557;61;20363;-61
2023/12/19 05:28:39;0.00;0.00;0.62;0.00;0.00;0.62;2.10;1.47;;;21.50;27.40;;;;;;2267835;61;20375;-60
2023/12/19 05:31:24;0.00;0.00;0.62;0.00;0.00;0.62;2.13;1.83;;;21.50;27.40;;;;;;2268496;61;20395;-61
2023/12/19 05:34:09;0.00;0.00;0.62;0.00;0.00;0.62;2.57;2.00;;;21.50;27.40;;;;;;2268586;61;20362;-61
2023/12/19 05:36:53;0.00;0.00;0.62;0.00;0.00;0.62;3.20;2.07;;;21.50;27.40;;;;;;2268116;61;20387;-60
2023/12/19 05:39:38;0.00;0.00;0.62;0.00;0.00;0.62;2.30;1.80;;;21.50;27.40;;;;;;2268361;61;20481;-60
2023/12/19 05:42:24;0.00;0.00;0.62;0.00;0.00;0.62;2.73;1.90;;;21.50;27.40;;;;;;2267842;61;20828;-57
2023/12/19 05:45:09;0.00;0.00;0.62;0.00;0.00;0.62;2.70;1.80;;;21.50;27.40;;;;;;2268341;61;20363;-59
2023/12/19 05:47:54;0.00;0.00;0.62;0.00;0.00;0.62;3.23;2.13;;;21.50;27.40;;;;;;2268383;61;20964;-61
2023/12/19 05:50:39;0.00;0.00;0.62;0.00;0.00;0.62;2.60;1.73;;;21.50;27.40;;;;;;2268200;61;20362;-58
2023/12/19 05:53:23;0.00;0.00;0.62;0.00;0.00;0.62;2.57;2.00;;;21.50;27.40;;;;;;2268007;61;20894;-63
2023/12/19 05:56:12;0.00;0.00;0.62;0.00;0.00;0.62;3.33;2.20;;;21.50;27.40;;;;;;2268313;61;20899;-61
2023/12/19 05:58:58;0.00;0.00;0.62;0.00;0.00;0.62;2.83;1.87;;;21.50;27.40;;;;;;2267976;61;20424;-61
2023/12/19 06:01:43;0.00;0.00;0.62;0.00;0.00;0.62;2.50;1.73;;;21.50;27.40;;;;;;2268173;61;20359;-61
2023/12/19 06:04:28;0.00;0.00;0.62;0.00;0.00;0.62;3.50;2.00;;;21.50;27.40;;;;;;2268594;61;20382;-61
2023/12/19 06:07:13;0.00;0.00;0.62;0.00;0.00;0.62;2.60;1.73;;;21.50;27.40;;;;;;2268225;61;20414;-61
2023/12/19 06:09:57;0.00;0.00;0.62;0.00;0.00;0.62;2.60;2.10;;;21.50;27.40;;;;;;2268391;61;20919;-61
2023/12/19 06:12:41;0.00;0.00;0.62;0.00;0.00;0.62;3.20;2.20;;;21.50;27.40;;;;;;2267408;61;20497;-58
2023/12/19 06:15:27;0.00;0.00;0.62;0.00;0.00;0.62;3.37;2.40;;;21.50;27.40;;;;;;2268638;61;20846;-61
2023/12/19 06:18:13;0.00;0.00;0.62;0.00;0.00;0.62;2.57;1.77;;;21.50;27.40;;;;;;2268535;61;20416;-61
2023/12/19 06:20:59;0.00;0.00;0.62;0.00;0.00;0.62;2.67;2.10;;;21.50;27.40;;;;;;2268722;61;20394;-59
2023/12/19 06:23:44;0.00;0.00;0.62;0.00;0.00;0.62;2.67;1.70;;;21.50;27.40;;;;;;2268816;61;20386;-61
2023/12/19 06:26:28;0.00;0.00;0.62;0.00;0.00;0.62;3.30;2.23;;;21.60;27.50;;;;;;2269170;61;20390;-59
2023/12/19 06:29:13;0.00;0.00;0.62;0.00;0.00;0.62;2.63;2.20;;;21.50;27.40;;;;;;2268687;61;20402;-60
2023/12/19 06:31:59;0.00;0.00;0.62;0.00;0.00;0.62;2.57;1.93;;;21.50;27.40;;;;;;2268795;61;20359;-61
2023/12/19 06:34:43;0.00;0.00;0.62;0.00;0.00;0.62;3.10;2.10;;;21.50;27.40;;;;;;2268870;61;20363;-60
2023/12/19 06:37:28;0.00;0.00;0.62;0.00;0.00;0.62;3.00;1.97;;;21.50;27.40;;;;;;2268944;61;20453;-59
2023/12/19 06:40:13;0.00;0.00;0.62;0.00;0.00;0.62;3.70;2.10;;;21.50;27.40;;;;;;2269086;61;20379;-61
2023/12/19 06:42:57;0.00;0.00;0.62;0.00;0.00;0.62;3.27;2.13;;;21.50;27.40;;;;;;2268342;61;20402;-61
2023/12/19 06:45:42;0.00;0.00;0.62;0.00;0.00;0.62;2.40;2.07;;;21.50;27.40;;;;;;2268996;61;20439;-61
2023/12/19 06:48:28;0.00;0.00;0.62;0.00;0.00;0.62;3.60;2.40;;;21.50;27.40;;;;;;2268938;61;20398;-61
2023/12/19 06:51:23;0.00;0.00;0.62;0.00;0.00;0.62;2.67;2.03;;;21.50;27.40;;;;;;2268702;61;20379;-60
2023/12/19 06:54:08;0.00;0.00;0.62;0.00;0.00;0.62;2.40;1.60;;;21.50;27.40;;;;;;2268838;61;20432;-63
2023/12/19 06:56:52;0.00;0.00;0.62;0.00;0.00;0.62;3.47;2.40;;;21.50;28.00;;;;;;2268564;61;20489;-62
2023/12/19 06:59:37;0.00;0.00;0.62;0.00;0.00;0.62;2.30;1.50;;;21.50;27.40;;;;;;2268963;61;20477;-61
2023/12/19 07:02:21;0.00;0.00;0.62;0.00;0.00;0.62;2.97;1.90;;;21.50;27.40;;;;;;2268491;61;20362;-63
2023/12/19 07:05:09;0.00;0.00;0.62;0.00;0.00;0.62;2.77;2.10;;;21.50;27.40;;;;;;2265280;61;20779;-60
2023/12/19 07:07:54;0.00;0.00;0.62;0.00;0.00;0.62;2.57;2.03;;;21.50;27.40;;;;;;2268942;61;20440;-62
2023/12/19 07:10:39;0.00;0.00;0.62;0.00;0.00;0.62;2.33;1.90;;;21.50;27.40;;;;;;2268912;61;20363;-60
2023/12/19 07:13:24;0.00;0.00;0.62;0.00;0.00;0.62;2.80;1.83;;;21.50;27.40;;;;;;2268394;61;20904;-61
2023/12/19 07:16:14;0.00;0.00;0.62;0.00;0.00;0.62;2.20;1.90;;;21.50;27.40;;;;;;2269108;61;20375;-61
2023/12/19 07:19:00;0.00;0.00;0.62;0.00;0.00;0.62;2.40;1.90;;;21.50;27.40;;;;;;2268535;61;20391;-61
2023/12/19 07:21:48;0.00;0.00;0.62;0.00;0.00;0.62;2.30;1.60;;;21.50;27.40;;;;;;2268503;61;20375;-61
2023/12/19 07:24:32;0.00;0.00;0.62;0.00;0.00;0.62;3.13;2.20;;;21.50;27.40;;;;;;2268871;61;20502;-56
2023/12/19 07:27:17;0.00;0.00;0.62;0.00;0.00;0.62;2.73;1.87;;;21.50;27.40;;;;;;2268388;61;20405;-61
2023/12/19 07:30:02;0.00;0.00;0.62;0.00;0.00;0.62;2.50;1.73;;;21.50;27.40;;;;;;2268810;61;20477;-61
2023/12/19 07:32:49;0.00;0.00;0.62;0.00;0.00;0.62;2.83;1.80;;;21.50;27.40;;;;;;2268576;61;20770;-61
2023/12/19 07:35:34;0.00;0.00;0.62;0.00;0.00;0.62;2.03;1.47;;;21.50;27.40;;;;;;2268466;61;20363;-61
2023/12/19 07:38:21;0.00;0.00;0.62;0.00;0.00;0.62;2.10;1.63;;;21.50;27.40;;;;;;2268882;61;20767;-61
2023/12/19 07:41:06;0.00;0.00;0.62;0.00;0.00;0.62;3.20;2.03;;;21.50;27.40;;;;;;2268121;61;20417;-59
2023/12/19 07:43:50;0.00;0.00;0.62;0.00;0.00;0.62;3.07;2.20;;;21.50;27.40;;;;;;2268703;61;20409;-58
2023/12/19 07:46:39;0.00;0.00;0.62;0.00;0.00;0.62;2.40;1.80;;;21.50;27.40;;;;;;2265632;61;20389;-59
2023/12/19 07:49:24;0.00;0.00;0.62;0.00;0.00;0.62;2.67;1.90;;;21.50;27.40;;;;;;2268489;61;20883;-58
2023/12/19 07:52:08;0.00;0.00;0.62;0.00;0.00;0.62;2.10;1.70;;;21.50;27.50;;;;;;2268409;61;20358;-60
2023/12/19 07:54:54;0.00;0.00;0.62;0.00;0.00;0.62;2.50;1.60;;;21.50;27.40;;;;;;2268880;61;20802;-61
2023/12/19 07:57:39;0.00;0.00;0.62;0.00;0.00;0.62;2.10;1.60;;;21.50;28.00;;;;;;2268456;61;20885;-60
2023/12/19 08:00:23;0.00;0.00;0.62;0.00;0.00;0.62;3.00;2.00;;;21.50;27.40;;;;;;2268711;61;20915;-60
2023/12/19 08:03:08;0.00;0.00;0.62;0.00;0.00;0.62;3.10;2.37;;;21.50;27.50;;;;;;2267939;61;20419;-61
2023/12/19 08:05:55;0.00;0.00;0.62;0.00;0.00;0.62;2.97;2.43;;;21.50;27.50;;;;;;2268719;61;20949;-64
2023/12/19 08:08:40;0.00;0.00;0.62;0.00;0.00;0.62;4.17;2.67;;;21.50;27.40;;;;;;2268713;61;20409;-60
2023/12/19 08:11:26;0.00;0.00;0.62;0.00;0.00;0.62;2.97;2.20;;;21.50;27.50;;;;;;2268561;61;20347;-59
2023/12/19 08:14:11;0.00;0.00;0.62;0.00;0.00;0.62;4.00;2.50;;;21.50;27.40;;;;;;2268712;61;20413;-61
2023/12/19 08:16:56;0.00;0.00;0.62;0.00;0.00;0.62;2.90;2.20;;;21.50;27.50;;;;;;2268673;61;20402;-58
2023/12/19 08:19:41;0.00;0.00;0.62;0.00;0.00;0.62;2.60;1.97;;;21.50;27.50;;;;;;2268132;61;20484;-62
2023/12/19 08:22:25;0.00;0.00;0.62;0.00;0.00;0.62;3.43;2.70;;;21.50;27.50;;;;;;2268369;61;20577;-59
2023/12/19 08:25:10;0.00;0.00;0.62;0.00;0.00;0.62;3.20;2.30;;;21.50;27.50;;;;;;2265969;61;20398;-59
2023/12/19 08:27:56;0.00;0.00;0.62;0.00;0.00;0.62;3.60;2.40;;;21.50;27.50;;;;;;2264608;61;20416;-61
2023/12/19 08:30:40;0.00;0.00;0.62;0.00;0.00;0.62;5.30;3.10;;;21.50;27.50;;;;;;2264612;61;20392;-60
2023/12/19 08:33:25;0.00;0.00;0.62;0.00;0.00;0.62;3.63;2.50;;;21.50;27.50;;;;;;2264285;61;20360;-57
2023/12/19 08:36:09;0.00;0.00;0.62;0.00;0.00;0.62;3.93;2.63;;;21.50;27.50;;;;;;2264624;61;20812;-61
2023/12/19 08:38:54;0.00;0.00;0.62;0.00;0.00;0.62;3.23;2.27;;;21.50;27.50;;;;;;2264740;61;20398;-61
2023/12/19 08:41:39;0.00;0.00;0.62;0.00;0.00;0.62;3.67;2.80;;;21.50;27.50;;;;;;2263707;61;20367;-61
2023/12/19 08:44:26;0.00;0.00;0.62;0.00;0.00;0.62;3.40;2.90;;;21.50;27.50;;;;;;2264893;61;20371;-63
2023/12/19 08:47:11;0.00;0.00;0.62;0.00;0.00;0.62;4.33;2.90;;;21.50;27.60;;;;;;2264572;61;20392;-61
2023/12/19 08:49:59;0.00;0.00;0.62;0.00;0.00;0.62;3.57;2.50;;;21.50;27.50;;;;;;2264658;61;20493;-61
2023/12/19 08:52:43;0.00;0.00;0.62;0.00;0.00;0.62;5.10;3.40;;;21.50;27.60;;;;;;2264305;61;20356;-61
2023/12/19 08:55:30;0.00;0.00;0.62;0.00;0.00;0.62;5.37;3.77;;;21.50;27.60;;;;;;2264362;61;20875;-61
2023/12/19 08:58:14;0.00;0.00;0.62;0.00;0.00;0.62;4.30;3.17;;;21.50;27.60;;;;;;2264716;61;20351;-60
2023/12/19 09:01:00;0.00;0.00;0.62;0.00;0.00;0.62;4.90;3.10;;;21.50;27.60;;;;;;2264615;61;20364;-63
2023/12/19 09:03:45;0.00;0.00;0.62;0.00;0.00;0.62;3.57;2.77;;;21.50;27.60;;;;;;2263960;61;20368;-58
2023/12/19 09:06:29;0.00;0.00;0.62;0.00;0.00;0.62;4.97;3.73;;;21.50;27.60;;;;;;2261379;61;20407;-66
2023/12/19 09:09:14;0.00;0.00;0.62;0.00;0.00;0.62;3.20;2.43;;;21.50;27.60;;;;;;2264395;61;20375;-60
2023/12/19 09:11:58;0.00;0.00;0.62;0.00;0.00;0.62;3.63;2.70;;;21.50;27.60;;;;;;2266294;61;20402;-60
2023/12/19 09:14:43;0.00;0.00;0.62;0.00;0.00;0.62;3.40;2.70;;;21.50;27.60;;;;;;2264472;61;20384;-59
2023/12/19 09:17:29;0.00;0.00;0.62;0.00;0.00;0.62;3.90;2.90;;;21.50;27.70;;;;;;2263734;61;20356;-60
2023/12/19 09:20:15;0.00;0.00;0.62;0.00;0.00;0.62;4.57;3.30;;;21.50;27.70;;;;;;2264336;61;20415;-59
2023/12/19 09:23:00;0.00;0.00;0.62;0.00;0.00;0.62;3.53;2.80;;;21.50;27.60;;;;;;2264124;61;20391;-59
2023/12/19 09:25:45;0.00;0.00;0.62;0.00;0.00;0.62;4.70;3.60;;;21.50;27.60;;;;;;2264207;61;20368;-60
2023/12/19 09:28:30;0.00;0.00;0.62;0.00;0.00;0.62;4.20;2.83;;;21.50;27.60;;;;;;2264282;61;20953;-61
2023/12/19 09:31:14;0.00;0.00;0.62;0.00;0.00;0.62;4.17;3.20;;;21.50;27.70;;;;;;2264392;61;20364;-59
2023/12/19 09:34:02;0.00;0.00;0.62;0.00;0.00;0.62;3.90;3.13;;;21.50;27.60;;;;;;2264139;61;20367;-61
2023/12/19 09:36:46;0.00;0.00;0.62;0.00;0.00;0.62;3.63;3.00;;;21.50;27.60;;;;;;2264514;61;20457;-61
2023/12/19 09:39:31;0.00;0.00;0.62;0.00;0.00;0.62;4.57;3.67;;;21.50;27.60;;;;;;2264137;61;20380;-59
2023/12/19 09:42:19;0.00;0.00;0.62;0.00;0.00;0.62;4.47;3.37;;;21.50;27.60;;;;;;2264000;61;20510;-58
2023/12/19 09:45:05;0.00;0.00;0.62;0.00;0.00;0.62;4.13;3.30;;;21.50;27.60;;;;;;2264367;61;20376;-61
2023/12/19 09:47:58;0.00;0.00;0.62;0.00;0.00;0.62;3.60;2.90;;;21.50;27.70;;;;;;2263972;61;20396;-61
2023/12/19 09:50:48;0.00;0.00;0.62;0.00;0.00;0.62;5.00;3.40;;;21.50;27.70;;;;;;2264416;61;20372;-60
2023/12/19 09:53:34;0.00;0.00;0.62;0.00;0.00;0.62;4.03;2.77;;;21.50;27.70;;;;;;2263907;61;20365;-60
2023/12/19 09:56:19;0.00;0.00;0.62;0.00;0.00;0.62;3.60;2.50;;;21.50;27.70;;;;;;2264164;61;20445;-59
2023/12/19 09:59:04;0.00;0.00;0.62;0.00;0.00;0.62;3.87;2.90;;;21.50;27.70;;;;;;2264194;61;20425;-60
2023/12/19 10:01:49;0.00;0.00;0.62;0.00;0.00;0.62;4.80;3.40;;;21.50;27.70;;;;;;2263720;61;20445;-60
2023/12/19 10:04:33;0.00;0.00;0.62;0.00;0.00;0.62;3.50;2.87;;;21.50;27.70;;;;;;2261195;61;20379;-61
2023/12/19 10:07:20;0.00;0.00;0.62;0.00;0.00;0.62;3.97;2.77;;;21.50;28.20;;;;;;2264358;61;20931;-59
2023/12/19 10:10:07;0.00;0.00;0.62;0.00;0.00;0.62;3.90;3.00;;;21.50;27.70;;;;;;2264102;61;20388;-59
2023/12/19 10:12:52;0.00;0.00;0.62;0.00;0.00;0.62;3.10;2.47;;;21.50;27.70;;;;;;2263908;61;20463;-61
2023/12/19 10:15:37;0.00;0.00;0.62;0.00;0.00;0.62;4.67;3.13;;;21.50;27.70;;;;;;2264353;61;20756;-60
2023/12/19 10:18:23;0.00;0.00;0.62;0.00;0.00;0.62;3.80;2.97;;;21.50;27.70;;;;;;2265078;61;20900;-58
2023/12/19 10:21:13;0.00;0.00;0.62;0.00;0.00;0.62;3.47;2.60;;;21.50;28.20;;;;;;2265993;61;20371;-60
2023/12/19 10:24:11;0.00;0.00;0.62;0.00;0.00;0.62;3.97;2.63;;;21.50;27.70;;;;;;2266117;61;20407;-60
2023/12/19 10:26:59;0.00;0.00;0.62;0.00;0.00;0.62;3.50;2.77;;;21.50;27.70;;;;;;2266306;61;20396;-60
2023/12/19 10:29:44;0.00;0.00;0.62;0.00;0.00;0.62;3.77;3.03;;;21.50;27.70;;;;;;2266725;61;20791;-55
2023/12/19 10:32:28;0.00;0.00;0.62;0.00;0.00;0.62;3.97;2.67;;;21.50;27.70;;;;;;2262282;61;20360;-61
2023/12/19 10:35:13;0.00;0.00;0.62;0.00;0.00;0.62;3.50;2.50;;;21.50;27.70;;;;;;2266151;61;20384;-59
2023/12/19 10:37:59;0.00;0.00;0.62;0.00;0.00;0.62;3.00;2.50;;;21.50;27.70;;;;;;2263074;61;20850;-60
2023/12/19 10:40:46;0.00;0.00;0.62;0.00;0.00;0.62;6.50;3.00;;;21.50;27.70;;;;;;2265930;61;20896;-59
2023/12/19 10:43:38;0.00;0.00;0.62;0.00;0.00;0.62;3.93;2.93;;;21.50;27.70;;;;;;2265960;61;20446;-59
2023/12/19 10:46:26;0.00;0.00;0.62;0.00;0.00;0.62;3.90;2.80;;;21.50;27.70;;;;;;2262853;61;20810;-61
2023/12/19 10:49:11;0.00;0.00;0.62;0.00;0.00;0.62;2.90;2.27;;;21.50;27.70;;;;;;2268583;61;20379;-59
2023/12/19 10:51:59;0.00;0.00;0.62;0.00;0.00;0.62;4.33;2.17;;;21.50;27.70;;;;;;2265995;61;20364;-59